createdAt,value
2023-02-09T00:01:09.554Z,12.54
2023-02-09T00:03:59.613Z,12.40
2023-02-09T00:06:48.953Z,12.51
2023-02-09T00:09:30.775Z,12.61
2023-02-09T00:12:38.495Z,12.52
2023-02-09T00:15:27.520Z,12.59
2023-02-09T00:18:09.884Z,12.60
2023-02-09T00:20:59.610Z,12.52
2023-02-09T00:23:56.437Z,12.55
2023-02-09T00:26:46.516Z,12.53
2023-02-09T00:29:28.839Z,12.47
2023-02-09T00:32:17.562Z,12.59
2023-02-09T00:34:59.818Z,12.56
2023-02-09T00:37:49.529Z,12.41
2023-02-09T00:40:38.558Z,12.45
2023-02-09T00:43:26.866Z,12.46
2023-02-09T00:46:09.657Z,12.35
2023-02-09T00:48:51.733Z,12.46
2023-02-09T00:51:40.546Z,12.35
2023-02-09T00:54:29.889Z,12.44
2023-02-09T00:57:13.593Z,12.43
2023-02-09T01:00:01.848Z,12.44
2023-02-09T01:02:45.505Z,12.38
2023-02-09T01:05:27.831Z,12.38
2023-02-09T01:08:16.536Z,12.29
2023-02-09T01:11:05.530Z,12.24
2023-02-09T01:13:48.991Z,12.14
2023-02-09T01:16:39.567Z,12.22
2023-02-09T01:19:21.980Z,11.83
2023-02-09T01:22:11.487Z,11.75
2023-02-09T01:24:59.760Z,11.87
2023-02-09T01:27:42.523Z,11.90
2023-02-09T01:30:30.770Z,11.96
2023-02-09T01:33:13.489Z,12.12
2023-02-09T01:36:06.464Z,11.81
2023-02-09T01:38:55.530Z,11.74
2023-02-09T01:41:38.446Z,11.77
2023-02-09T01:44:27.567Z,11.82
2023-02-09T01:47:19.215Z,11.90
2023-02-09T01:50:08.505Z,11.93
2023-02-09T01:52:52.456Z,11.95
2023-02-09T01:55:47.534Z,12.01
2023-02-09T01:58:36.565Z,12.14
2023-02-09T02:01:19.818Z,12.08
2023-02-09T02:04:08.541Z,12.05
2023-02-09T02:06:50.809Z,12.22
2023-02-09T02:09:39.593Z,12.37
2023-02-09T02:12:26.599Z,12.36
2023-02-09T02:15:16.643Z,12.34
2023-02-09T02:18:32.990Z,12.53
2023-02-09T02:21:48.577Z,12.63
2023-02-09T02:24:58.452Z,12.45
2023-02-09T02:28:14.556Z,12.64
2023-02-09T02:31:30.589Z,12.56
2023-02-09T02:34:43.081Z,12.73
2023-02-09T02:37:37.536Z,12.64
2023-02-09T02:40:22.867Z,12.77
2023-02-09T02:43:33.489Z,12.85
2023-02-09T02:46:37.066Z,13.02
2023-02-09T02:49:34.524Z,13.16
2023-02-09T02:52:23.908Z,13.19
2023-02-09T02:55:14.502Z,13.15
2023-02-09T02:58:04.236Z,13.33
2023-02-09T03:01:01.545Z,13.41
2023-02-09T03:03:52.854Z,13.66
2023-02-09T03:06:35.571Z,13.67
2023-02-09T03:09:25.809Z,13.82
2023-02-09T03:12:26.522Z,13.94
2023-02-09T03:15:31.843Z,14.12
2023-02-09T03:18:30.979Z,14.18
2023-02-09T03:21:15.526Z,14.34
2023-02-09T03:24:14.568Z,14.48
2023-02-09T03:28:01.497Z,14.49
2023-02-09T03:30:52.605Z,14.53
2023-02-09T03:33:44.419Z,14.49
2023-02-09T03:36:39.474Z,14.46
2023-02-09T03:39:21.804Z,14.64
2023-02-09T03:42:10.600Z,14.80
2023-02-09T03:44:52.871Z,14.91
2023-02-09T03:47:41.619Z,15.00
2023-02-09T03:50:24.885Z,14.95
2023-02-09T03:53:16.497Z,15.10
2023-02-09T03:55:58.741Z,15.36
2023-02-09T03:58:47.635Z,15.62
2023-02-09T04:01:29.792Z,15.87
2023-02-09T04:04:18.464Z,16.05
2023-02-09T04:07:01.795Z,16.28
2023-02-09T04:09:50.550Z,16.41
2023-02-09T04:12:32.854Z,16.53
2023-02-09T04:15:21.448Z,16.36
2023-02-09T04:18:03.720Z,16.36
2023-02-09T04:20:52.806Z,16.39
2023-02-09T04:23:34.777Z,16.55
2023-02-09T04:26:23.538Z,16.53
2023-02-09T04:29:05.894Z,16.60
2023-02-09T04:31:54.517Z,16.68
2023-02-09T04:34:36.718Z,16.51
2023-02-09T04:37:25.504Z,16.61
2023-02-09T04:40:14.447Z,16.60
2023-02-09T04:42:56.619Z,16.65
2023-02-09T04:45:45.535Z,16.58
2023-02-09T04:48:35.850Z,16.78
2023-02-09T04:51:18.534Z,16.78
2023-02-09T04:54:00.926Z,17.53
2023-02-09T04:56:49.503Z,18.08
2023-02-09T04:59:37.447Z,18.39
2023-02-09T05:02:27.615Z,18.46
2023-02-09T05:05:16.805Z,18.22
2023-02-09T05:07:59.559Z,17.89
2023-02-09T05:10:47.968Z,18.16
2023-02-09T05:13:31.486Z,18.20
2023-02-09T05:16:27.567Z,18.12
2023-02-09T05:19:10.230Z,18.07
2023-02-09T05:22:00.902Z,18.19
2023-02-09T05:24:48.749Z,18.09
2023-02-09T05:27:30.506Z,18.29
2023-02-09T05:30:19.490Z,18.60
2023-02-09T05:33:01.834Z,18.76
2023-02-09T05:35:50.463Z,18.84
2023-02-09T05:38:32.754Z,18.82
2023-02-09T05:41:45.495Z,19.02
2023-02-09T05:44:27.821Z,18.88
2023-02-09T05:47:16.560Z,18.76
2023-02-09T05:49:59.793Z,18.96
2023-02-09T05:52:48.510Z,19.01
2023-02-09T05:55:30.932Z,19.08
2023-02-09T05:58:19.492Z,18.83
2023-02-09T06:01:01.998Z,18.65
2023-02-09T06:03:50.483Z,18.75
2023-02-09T06:06:32.897Z,18.75
2023-02-09T06:09:21.539Z,18.77
2023-02-09T06:12:03.906Z,19.02
2023-02-09T06:14:52.493Z,19.10
2023-02-09T06:17:34.779Z,19.02
2023-02-09T06:20:23.429Z,19.08
2023-02-09T06:23:08.312Z,19.26
2023-02-09T06:26:00.841Z,19.68
2023-02-09T06:28:43.778Z,19.81
2023-02-09T06:31:32.581Z,19.88
2023-02-09T06:34:14.776Z,19.72
2023-02-09T06:37:03.486Z,19.72
2023-02-09T06:39:45.900Z,19.96
2023-02-09T06:42:51.431Z,19.95
2023-02-09T06:45:33.861Z,20.03
2023-02-09T06:48:22.454Z,20.21
2023-02-09T06:51:04.742Z,20.37
2023-02-09T06:53:53.538Z,20.61
2023-02-09T06:56:36.837Z,20.79
2023-02-09T06:59:25.514Z,20.52
2023-02-09T07:02:14.449Z,20.17
2023-02-09T07:05:02.788Z,20.14
2023-02-09T07:07:45.439Z,20.18
2023-02-09T07:10:34.701Z,20.55
2023-02-09T07:13:17.528Z,20.70
2023-02-09T07:16:08.856Z,20.74
2023-02-09T07:18:51.504Z,20.69
2023-02-09T07:21:39.822Z,20.48
2023-02-09T07:24:28.539Z,20.41
2023-02-09T07:27:12.762Z,20.36
2023-02-09T07:30:01.814Z,20.46
2023-02-09T07:32:48.776Z,20.59
2023-02-09T07:35:37.542Z,20.68
2023-02-09T07:38:20.756Z,20.55
2023-02-09T07:41:11.470Z,20.65
2023-02-09T07:43:54.786Z,20.37
2023-02-09T07:46:43.575Z,20.41
2023-02-09T07:49:25.773Z,20.55
2023-02-09T07:52:14.418Z,20.40
2023-02-09T07:54:57.722Z,20.40
2023-02-09T07:57:46.488Z,20.46
2023-02-09T08:00:28.705Z,20.59
2023-02-09T08:03:17.488Z,20.59
2023-02-09T08:06:08.751Z,20.39
2023-02-09T08:08:59.419Z,20.59
2023-02-09T08:11:46.817Z,20.81
2023-02-09T08:14:44.478Z,20.99
2023-02-09T08:17:37.427Z,20.97
2023-02-09T08:20:22.984Z,20.70
2023-02-09T08:23:20.498Z,20.92
2023-02-09T08:26:14.790Z,21.04
2023-02-09T08:28:57.547Z,21.17
2023-02-09T08:31:46.267Z,21.12
2023-02-09T08:34:29.427Z,21.44
2023-02-09T08:37:17.856Z,21.37
2023-02-09T08:39:59.580Z,21.42
2023-02-09T08:42:47.772Z,21.61
2023-02-09T08:45:30.604Z,21.77
2023-02-09T08:48:18.729Z,21.78
2023-02-09T08:51:00.464Z,21.37
2023-02-09T08:53:52.237Z,21.38
2023-02-09T08:56:34.776Z,21.13
2023-02-09T08:59:23.466Z,21.25
2023-02-09T09:02:05.762Z,20.90
2023-02-09T09:04:54.408Z,20.76
2023-02-09T09:07:43.443Z,20.66
2023-02-09T09:10:31.756Z,20.50
2023-02-09T09:13:14.404Z,20.44
2023-02-09T09:16:05.219Z,20.30
2023-02-09T09:18:47.822Z,20.32
2023-02-09T09:21:36.536Z,20.28
2023-02-09T09:24:18.722Z,20.07
2023-02-09T09:27:07.475Z,19.90
2023-02-09T09:29:56.473Z,19.91
2023-02-09T09:32:44.785Z,19.94
2023-02-09T09:35:26.527Z,19.97
2023-02-09T09:38:14.766Z,20.05
2023-02-09T09:40:57.610Z,19.90
2023-02-09T09:44:02.319Z,19.78
2023-02-09T09:46:59.424Z,19.86
2023-02-09T09:49:45.877Z,19.91
2023-02-09T09:52:48.506Z,19.85
2023-02-09T09:55:37.741Z,19.77
2023-02-09T09:58:28.403Z,19.65
2023-02-09T10:01:10.770Z,19.53
2023-02-09T10:03:59.420Z,19.50
2023-02-09T10:06:48.468Z,19.52
2023-02-09T10:09:53.743Z,19.56
2023-02-09T10:12:57.441Z,19.43
2023-02-09T10:15:46.994Z,19.31
2023-02-09T10:18:33.530Z,19.27
2023-02-09T10:21:24.742Z,19.30
2023-02-09T10:24:37.392Z,19.28
2023-02-09T10:27:29.423Z,19.29
2023-02-09T10:30:43.499Z,19.23
2023-02-09T10:33:32.849Z,19.22
2023-02-09T10:36:30.975Z,19.15
2023-02-09T10:39:33.857Z,19.13
2023-02-09T10:42:32.514Z,19.03
2023-02-09T10:45:27.179Z,19.09
2023-02-09T10:48:31.451Z,19.13
2023-02-09T10:51:34.618Z,19.18
2023-02-09T10:54:29.512Z,19.19
2023-02-09T10:57:45.728Z,19.11
2023-02-09T11:00:27.450Z,19.14
2023-02-09T11:03:31.290Z,19.12
2023-02-09T11:06:27.472Z,19.08
2023-02-09T11:09:24.363Z,18.92
2023-02-09T11:12:14.443Z,18.84
2023-02-09T11:15:03.884Z,18.69
2023-02-09T11:18:03.451Z,18.70
2023-02-09T11:21:09.541Z,18.74
2023-02-09T11:24:41.735Z,18.67
2023-02-09T11:27:33.472Z,18.81
2023-02-09T11:30:36.758Z,18.80
2023-02-09T11:33:30.451Z,18.75
2023-02-09T11:37:00.396Z,18.74
2023-02-09T11:40:08.888Z,18.68
2023-02-09T11:43:07.465Z,18.59
2023-02-09T11:45:52.564Z,18.49
2023-02-09T11:48:46.498Z,18.39
2023-02-09T11:51:35.841Z,18.37
2023-02-09T11:54:41.494Z,18.28
2023-02-09T11:57:55.707Z,18.26
2023-02-09T12:01:14.656Z,18.31
2023-02-09T12:04:24.339Z,18.32
2023-02-09T12:07:36.496Z,18.33
2023-02-09T12:10:44.097Z,18.26
2023-02-09T12:14:01.447Z,18.15
2023-02-09T12:16:52.475Z,18.11
2023-02-09T12:19:56.435Z,18.14
2023-02-09T12:22:49.899Z,18.18
2023-02-09T12:25:51.269Z,18.16
2023-02-09T12:28:39.777Z,18.14
2023-02-09T12:32:06.621Z,18.23
2023-02-09T12:34:57.754Z,18.17
2023-02-09T12:37:40.471Z,18.05
2023-02-09T12:40:29.731Z,18.01
2023-02-09T12:43:32.458Z,17.97
2023-02-09T12:46:39.660Z,17.75
2023-02-09T12:49:22.488Z,17.78
2023-02-09T12:52:10.786Z,17.65
2023-02-09T12:55:04.471Z,17.62
2023-02-09T12:57:51.961Z,17.62
2023-02-09T13:00:46.475Z,17.66
2023-02-09T13:03:37.836Z,17.58
2023-02-09T13:06:47.448Z,17.51
2023-02-09T13:09:44.900Z,17.56
2023-02-09T13:12:36.560Z,17.51
2023-02-09T13:15:27.916Z,17.53
2023-02-09T13:18:23.486Z,17.47
2023-02-09T13:21:29.953Z,17.53
2023-02-09T13:24:31.409Z,17.53
2023-02-09T13:27:28.933Z,17.57
2023-02-09T13:30:11.604Z,17.48
2023-02-09T13:33:14.905Z,17.43
2023-02-09T13:36:24.650Z,17.62
2023-02-09T13:39:26.988Z,17.48
2023-02-09T13:42:09.605Z,17.68
2023-02-09T13:44:59.797Z,17.77
2023-02-09T13:47:42.494Z,17.79
2023-02-09T13:50:34.485Z,17.76
2023-02-09T13:53:18.572Z,17.56
2023-02-09T13:56:08.974Z,17.64
2023-02-09T13:58:51.490Z,17.35
2023-02-09T14:01:47.020Z,17.38
2023-02-09T14:04:33.380Z,17.36
2023-02-09T14:07:23.057Z,17.29
2023-02-09T14:10:24.451Z,17.16
2023-02-09T14:13:23.881Z,17.20
2023-02-09T14:16:17.569Z,17.25
2023-02-09T14:19:07.768Z,17.20
2023-02-09T14:21:50.443Z,17.11
2023-02-09T14:24:58.497Z,16.98
2023-02-09T14:27:48.945Z,16.73
2023-02-09T14:30:34.633Z,16.69
2023-02-09T14:33:32.414Z,16.66
2023-02-09T14:36:30.422Z,16.59
2023-02-09T14:39:28.442Z,16.59
2023-02-09T14:42:19.104Z,16.40
2023-02-09T14:45:33.390Z,16.43
2023-02-09T14:48:24.956Z,16.51
2023-02-09T14:51:24.537Z,16.43
2023-02-09T14:54:16.496Z,16.33
2023-02-09T14:57:06.862Z,16.39
2023-02-09T14:59:49.359Z,16.42
2023-02-09T15:02:39.740Z,16.46
2023-02-09T15:05:22.495Z,16.43
2023-02-09T15:08:12.753Z,16.26
2023-02-09T15:11:01.604Z,16.20
2023-02-09T15:13:51.141Z,16.14
2023-02-09T15:16:34.474Z,16.18
2023-02-09T15:19:20.962Z,16.29
2023-02-09T15:22:09.509Z,16.27
2023-02-09T15:25:06.334Z,16.23
2023-02-09T15:28:01.445Z,16.08
2023-02-09T15:30:44.063Z,16.04
2023-02-09T15:33:34.467Z,16.06
2023-02-09T15:36:25.838Z,16.14
2023-02-09T15:39:23.507Z,15.97
2023-02-09T15:42:24.239Z,15.94
2023-02-09T15:45:49.439Z,15.89
2023-02-09T15:48:33.409Z,15.76
2023-02-09T15:51:23.477Z,15.90
2023-02-09T15:54:07.705Z,15.73
2023-02-09T15:56:56.749Z,15.93
2023-02-09T15:59:38.744Z,15.92
2023-02-09T16:02:27.433Z,15.77
2023-02-09T16:05:09.768Z,15.79
2023-02-09T16:08:00.502Z,15.71
2023-02-09T16:10:42.720Z,15.62
2023-02-09T16:13:31.427Z,15.71
2023-02-09T16:16:17.324Z,15.60
2023-02-09T16:19:06.418Z,15.61
2023-02-09T16:21:51.697Z,15.61
2023-02-09T16:24:46.417Z,15.52
2023-02-09T16:27:33.777Z,15.54
2023-02-09T16:30:31.118Z,15.58
2023-02-09T16:33:13.869Z,15.48
2023-02-09T16:36:10.457Z,15.45
2023-02-09T16:38:52.851Z,15.41
2023-02-09T16:42:00.470Z,15.45
2023-02-09T16:44:42.912Z,15.39
2023-02-09T16:47:35.429Z,15.33
2023-02-09T16:50:48.209Z,15.32
2023-02-09T16:53:43.453Z,15.36
2023-02-09T16:56:28.643Z,15.32
2023-02-09T16:59:21.454Z,15.42
2023-02-09T17:02:03.933Z,15.46
2023-02-09T17:04:54.420Z,15.40
2023-02-09T17:07:53.980Z,15.45
2023-02-09T17:10:45.563Z,15.39
2023-02-09T17:13:29.906Z,15.46
2023-02-09T17:16:43.490Z,15.52
2023-02-09T17:19:29.297Z,15.65
2023-02-09T17:22:22.374Z,15.76
2023-02-09T17:25:18.275Z,15.71
2023-02-09T17:28:08.483Z,15.73
2023-02-09T17:30:51.767Z,15.79
2023-02-09T17:33:43.526Z,15.90
2023-02-09T17:36:28.940Z,15.91
2023-02-09T17:39:20.416Z,15.93
2023-02-09T17:42:02.888Z,15.97
2023-02-09T17:44:51.504Z,15.93
2023-02-09T17:47:33.891Z,15.94
2023-02-09T17:50:22.534Z,15.97
2023-02-09T17:53:05.899Z,16.07
2023-02-09T17:55:55.472Z,16.09
2023-02-09T17:58:37.900Z,16.10
2023-02-09T18:01:37.555Z,16.11
2023-02-09T18:04:29.858Z,16.16
2023-02-09T18:07:18.549Z,16.17
2023-02-09T18:10:00.864Z,16.12
2023-02-09T18:12:50.401Z,16.11
2023-02-09T18:15:41.570Z,16.14
2023-02-09T18:18:30.422Z,16.14
2023-02-09T18:21:12.940Z,16.15
2023-02-09T18:24:01.425Z,16.20
2023-02-09T18:26:52.150Z,16.24
2023-02-09T18:29:37.793Z,16.16
2023-02-09T18:32:27.421Z,16.16
2023-02-09T18:35:10.514Z,16.13
2023-02-09T18:37:53.454Z,16.17
2023-02-09T18:40:43.398Z,16.14
2023-02-09T18:43:32.774Z,16.14
2023-02-09T18:46:15.540Z,16.12
2023-02-09T18:49:04.896Z,16.17
2023-02-09T18:51:46.474Z,16.13
2023-02-09T18:54:35.922Z,16.05
2023-02-09T18:57:18.406Z,16.11
2023-02-09T19:00:11.892Z,16.05
2023-02-09T19:02:54.453Z,16.01
2023-02-09T19:05:43.811Z,15.96
2023-02-09T19:08:26.416Z,15.88
2023-02-09T19:11:15.859Z,15.89
2023-02-09T19:14:16.348Z,15.86
2023-02-09T19:17:05.753Z,15.87
2023-02-09T19:19:48.399Z,15.75
2023-02-09T19:22:37.860Z,15.79
2023-02-09T19:25:34.415Z,15.79
2023-02-09T19:28:23.778Z,15.82
2023-02-09T19:31:06.405Z,15.78
2023-02-09T19:33:54.751Z,15.70
2023-02-09T19:36:37.394Z,15.74
2023-02-09T19:39:26.965Z,15.72
2023-02-09T19:42:10.688Z,15.68
2023-02-09T19:45:01.746Z,15.55
2023-02-09T19:47:46.398Z,15.53
2023-02-09T19:50:37.615Z,15.63
2023-02-09T19:53:21.415Z,15.55
2023-02-09T19:56:03.682Z,15.53
2023-02-09T19:58:52.454Z,15.52
2023-02-09T20:01:41.695Z,15.38
2023-02-09T20:04:24.392Z,15.46
2023-02-09T20:07:06.858Z,15.46
2023-02-09T20:09:56.388Z,15.43
2023-02-09T20:15:32.897Z,15.44
2023-02-09T20:18:22.392Z,15.44
2023-02-09T20:21:04.828Z,15.42
2023-02-09T20:23:53.406Z,15.40
2023-02-09T20:26:41.804Z,15.42
2023-02-09T20:29:24.366Z,15.28
2023-02-09T20:32:13.825Z,15.42
2023-02-09T20:34:55.381Z,15.40
2023-02-09T20:37:37.642Z,15.26
2023-02-09T20:40:29.327Z,15.32
2023-02-09T20:43:32.242Z,15.29
2023-02-09T20:46:41.446Z,15.23
2023-02-09T20:49:33.692Z,15.14
2023-02-09T20:52:15.792Z,15.12
2023-02-09T20:55:04.361Z,15.17
2023-02-09T20:57:46.658Z,15.18
2023-02-09T21:00:35.467Z,15.23
2023-02-09T21:03:20.259Z,15.20
2023-02-09T21:06:09.392Z,15.20
2023-02-09T21:08:53.007Z,15.08
2023-02-09T21:11:44.379Z,15.06
2023-02-09T21:14:41.856Z,15.12
2023-02-09T21:17:24.772Z,15.10
2023-02-09T21:20:14.434Z,15.20
2023-02-09T21:23:03.741Z,15.18
2023-02-09T21:25:59.401Z,15.05
2023-02-09T21:28:53.048Z,15.05
2023-02-09T21:31:36.571Z,15.09
2023-02-09T21:34:18.770Z,15.06
2023-02-09T21:37:07.425Z,15.13
2023-02-09T21:39:56.274Z,15.06
2023-02-09T21:42:45.463Z,15.04
2023-02-09T21:45:33.687Z,15.09
2023-02-09T21:48:16.414Z,15.07
2023-02-09T21:51:05.216Z,15.04
2023-02-09T21:53:54.313Z,15.07
2023-02-09T21:56:43.382Z,15.05
2023-02-09T21:59:25.728Z,15.10
2023-02-09T22:02:15.321Z,15.05
2023-02-09T22:05:04.399Z,15.12
2023-02-09T22:07:54.186Z,15.22
2023-02-09T22:10:36.385Z,15.30
2023-02-09T22:13:25.632Z,15.15
2023-02-09T22:16:08.347Z,15.18
2023-02-09T22:18:57.671Z,15.08
2023-02-09T22:21:40.397Z,15.03
2023-02-09T22:24:31.066Z,15.08
2023-02-09T22:27:20.390Z,15.10
2023-02-09T22:30:02.656Z,15.11
2023-02-09T22:32:51.371Z,15.12
2023-02-09T22:35:33.612Z,15.14
2023-02-09T22:38:22.461Z,15.11
2023-02-09T22:41:04.740Z,15.03
2023-02-09T22:43:53.389Z,15.03
2023-02-09T22:46:46.365Z,14.93
2023-02-09T22:49:28.587Z,14.98
2023-02-09T22:52:17.383Z,15.07
2023-02-09T22:55:06.663Z,15.06
2023-02-09T22:57:49.413Z,14.95
2023-02-09T23:00:37.658Z,14.88
2023-02-09T23:03:20.364Z,14.96
2023-02-09T23:06:14.628Z,14.95
2023-02-09T23:09:00.774Z,14.91
2023-02-09T23:11:49.354Z,14.92
2023-02-09T23:14:31.639Z,15.01
2023-02-09T23:17:20.420Z,15.06
2023-02-09T23:20:02.610Z,15.02
2023-02-09T23:22:51.382Z,14.96
2023-02-09T23:25:47.403Z,14.81
2023-02-09T23:28:36.469Z,14.83
2023-02-09T23:31:28.403Z,14.83
2023-02-09T23:34:17.927Z,14.86
2023-02-09T23:37:13.775Z,14.81
2023-02-09T23:40:05.708Z,14.85
2023-02-09T23:42:54.476Z,14.86
2023-02-09T23:45:42.667Z,14.94
2023-02-09T23:48:25.414Z,15.06
2023-02-09T23:51:16.874Z,14.99
2023-02-09T23:53:59.388Z,14.99
2023-02-09T23:56:48.652Z,14.97
2023-02-09T23:59:31.383Z,15.00
